Rogers Field

O05 · 加利福尼亚州, 美国

罗盘
风向 的 风向 180° Rogers Field 16/34
风向 到 风: 12 kt, 阵阵 18 kt, 4 beaufort

12 kt

1 kt
改变
0 ft 1.000 2.000 3.000 4.000 5.000
没有云
METAR KO05 210015Z AUTO 18012G18KT 10SM CLR 36/05 A3011 RMK A01

METAR Rogers Field - O05

Rogers Field是,美国中的小机场。 该机场位于纬度40,28236和经度-121,24117。 该机场有一条跑道: 16/34. 该机场的伪ICAO代码为KO05。 该机场的本地机场标识(FAA LID)为O05。 机场在Oakland FIR中。

该航空气象观测是针对Rogers Field在2024年7月20日 17:15, 当地时间进行的。

机场观察

风向为180°,速度为12 kt。 已测得18 kt的阵风。

可见度为10 mi。

有没有云。 没有观察到天花板。

温度和风寒是36 °C。 露点为5 °C,相对湿度为14%。 海平面上的气压为30,11 inHg (QNH)。

白天

今天,太阳从05:53升起,在20:29降落。 这适用于Rogers Field,世界夏令时可能有所不同。 当地时间与世界标准时间之间的时差为-7 小时。 夏令时目前正在进行中。

公司介绍

我们没有关于这个机场的公司信息。

体会

到Vliegles.nl去找飞行课程,跳伞和其他飞行体验。 浏览页面,了解Rogers Field附近所有可用的活动。 你也可以使用搜索功能来寻找你所在地附近的特定飞行课程、跳伞或其他飞行体验。

跑道

Id 标题 侧风 逆风 侧风 %
16/34 173°-353° 1-2 kt 12-18 kt 12 %

逆风成分最大的方向会被突出显示,并用于横风计算。 这并不一定意味着这个方向在使用。

乌云

- CLR 没有云

温度 & 天气

温度 36 °C
露点 5 °C
相对湿度 14%
Kp-index 0 (0-9)

评论

A01

白天

日出
05:53 (12:29)
中午
13:11
日落
20:29

小工具

你想在你的网站上有一个关于Rogers Field的当前航空天气(METAR)的小部件吗?

显示HTML代码
报告变更